createdAt,value
2022-09-12T00:02:04.274Z,100843.16
2022-09-12T00:05:07.432Z,100845.84
2022-09-12T00:08:09.093Z,100838.63
2022-09-12T00:11:12.035Z,100844.84
2022-09-12T00:14:16.675Z,100845.00
2022-09-12T00:17:18.227Z,100839.84
2022-09-12T00:20:19.924Z,100834.47
2022-09-12T00:23:21.784Z,100829.19
2022-09-12T00:26:23.390Z,100831.03
2022-09-12T00:29:24.986Z,100825.66
2022-09-12T00:32:26.649Z,100825.97
2022-09-12T00:35:28.242Z,100832.22
2022-09-12T00:38:29.858Z,100831.38
2022-09-12T00:41:34.319Z,100829.44
2022-09-12T00:44:35.807Z,100824.03
2022-09-12T00:47:37.950Z,100818.53
2022-09-12T00:50:39.507Z,100822.44
2022-09-12T00:53:43.710Z,100817.16
2022-09-12T00:56:51.811Z,100811.91
2022-09-12T00:59:58.502Z,100808.47
2022-09-12T01:03:01.957Z,100808.47
2022-09-12T01:06:15.552Z,100811.28
2022-09-12T01:09:21.359Z,100811.41
2022-09-12T01:12:22.957Z,100812.50
2022-09-12T01:15:24.715Z,100809.91
2022-09-12T01:18:51.825Z,100801.00
2022-09-12T01:22:15.946Z,100806.47
2022-09-12T01:26:22.382Z,100802.19
2022-09-12T01:29:45.576Z,100804.50
2022-09-12T01:33:22.713Z,100804.59
2022-09-12T01:36:34.496Z,100800.66
2022-09-12T01:39:40.590Z,100796.25
2022-09-12T01:43:09.807Z,100794.66
2022-09-12T01:46:21.672Z,100792.22
2022-09-12T01:49:29.522Z,100788.78
2022-09-12T01:52:37.702Z,100777.38
2022-09-12T01:55:49.870Z,100780.81
2022-09-12T01:58:57.887Z,100773.81
2022-09-12T02:02:07.272Z,100775.91
2022-09-12T02:05:17.670Z,100767.09
2022-09-12T02:08:33.177Z,100767.19
2022-09-12T02:11:40.205Z,100767.41
2022-09-12T02:14:50.333Z,100771.09
2022-09-12T02:17:55.166Z,100770.44
2022-09-12T02:20:57.456Z,100760.78
2022-09-12T02:24:02.850Z,100766.28
2022-09-12T02:27:27.991Z,100762.09
2022-09-12T02:30:39.718Z,100766.97
2022-09-12T02:33:58.001Z,100762.56
2022-09-12T02:36:59.501Z,100760.97
2022-09-12T02:40:01.856Z,100761.19
2022-09-12T02:43:05.557Z,100762.06
2022-09-12T02:46:13.776Z,100762.16
2022-09-12T02:49:17.179Z,100756.91
2022-09-12T02:52:19.778Z,100756.16
2022-09-12T02:55:21.637Z,100753.34
2022-09-12T02:58:27.472Z,100747.09
2022-09-12T03:01:35.106Z,100748.94
2022-09-12T03:05:24.933Z,100750.66
2022-09-12T03:09:00.305Z,100748.84
2022-09-12T03:12:19.050Z,100754.31
2022-09-12T03:15:51.681Z,100750.53
2022-09-12T03:19:19.894Z,100748.94
2022-09-12T03:23:00.156Z,100758.00
2022-09-12T03:26:17.044Z,100743.06
2022-09-12T03:29:19.341Z,100748.66
2022-09-12T03:32:20.862Z,100750.59
2022-09-12T03:35:24.557Z,100751.44
2022-09-12T03:38:26.423Z,100747.38
2022-09-12T03:41:27.947Z,100746.75
2022-09-12T03:44:29.484Z,100743.19
2022-09-12T03:47:31.323Z,100736.97
2022-09-12T03:50:33.815Z,100737.09
2022-09-12T03:53:35.716Z,100749.31
2022-09-12T03:56:37.755Z,100738.56
2022-09-12T03:59:39.331Z,100738.47
2022-09-12T04:02:40.868Z,100740.19
2022-09-12T04:05:42.450Z,100741.03
2022-09-12T04:08:47.760Z,100741.03
2022-09-12T04:11:49.343Z,100745.78
2022-09-12T04:14:50.925Z,100740.63
2022-09-12T04:17:52.442Z,100743.31
2022-09-12T04:20:54.305Z,100742.47
2022-09-12T04:23:55.829Z,100735.38
2022-09-12T04:26:57.423Z,100741.59
2022-09-12T04:30:01.172Z,100741.50
2022-09-12T04:33:07.464Z,100747.94
2022-09-12T04:36:14.291Z,100750.53
2022-09-12T04:39:17.142Z,100743.56
2022-09-12T04:42:18.787Z,100744.63
2022-09-12T04:45:20.283Z,100742.66
2022-09-12T04:48:21.839Z,100749.78
2022-09-12T04:51:29.715Z,100748.56
2022-09-12T04:54:31.385Z,100740.75
2022-09-12T04:57:33.210Z,100749.44
2022-09-12T05:00:35.123Z,100745.03
2022-09-12T05:03:39.043Z,100749.53
2022-09-12T05:06:42.552Z,100755.78
2022-09-12T05:09:44.077Z,100762.13
2022-09-12T05:12:45.636Z,100760.38
2022-09-12T05:15:58.502Z,100755.91
2022-09-12T05:19:00.475Z,100753.31
2022-09-12T05:22:02.517Z,100755.16
2022-09-12T05:25:05.706Z,100751.47
2022-09-12T05:28:07.336Z,100761.91
2022-09-12T05:31:13.074Z,100765.00
2022-09-12T05:34:15.361Z,100762.09
2022-09-12T05:37:17.252Z,100762.63
2022-09-12T05:40:19.331Z,100757.75
2022-09-12T05:43:20.899Z,100760.97
2022-09-12T05:46:25.748Z,100760.16
2022-09-12T05:49:27.520Z,100761.88
2022-09-12T05:52:29.208Z,100760.44
2022-09-12T05:55:31.801Z,100770.53
2022-09-12T05:58:35.225Z,100763.59
2022-09-12T06:01:36.871Z,100761.06
2022-09-12T06:04:40.904Z,100764.75
2022-09-12T06:07:42.411Z,100765.16
2022-09-12T06:10:44.004Z,100770.47
2022-09-12T06:13:45.616Z,100764.13
2022-09-12T06:16:48.575Z,100759.97
2022-09-12T06:19:51.067Z,100754.78
2022-09-12T06:22:55.710Z,100755.03
2022-09-12T06:25:57.310Z,100758.72
2022-09-12T06:29:00.873Z,100752.81
2022-09-12T06:32:02.573Z,100752.56
2022-09-12T06:35:05.490Z,100753.28
2022-09-12T06:38:07.024Z,100752.16
2022-09-12T06:41:13.943Z,100750.28
2022-09-12T06:44:22.449Z,100748.28
2022-09-12T06:47:24.018Z,100740.16
2022-09-12T06:50:25.531Z,100743.44
2022-09-12T06:53:28.622Z,100740.41
2022-09-12T06:56:30.249Z,100743.38
2022-09-12T06:59:31.973Z,100743.91
2022-09-12T07:02:33.528Z,100737.63
2022-09-12T07:05:35.057Z,100736.75
2022-09-12T07:08:37.841Z,100747.50
2022-09-12T07:11:40.933Z,100739.78
2022-09-12T07:14:42.532Z,100739.25
2022-09-12T07:17:44.468Z,100739.38
2022-09-12T07:20:46.046Z,100746.81
2022-09-12T07:23:47.988Z,100743.13
2022-09-12T07:26:49.776Z,100743.44
2022-09-12T07:29:51.394Z,100739.88
2022-09-12T07:32:55.957Z,100750.97
2022-09-12T07:36:01.903Z,100749.53
2022-09-12T07:39:03.506Z,100743.84
2022-09-12T07:42:05.462Z,100749.81
2022-09-12T07:45:07.858Z,100748.63
2022-09-12T07:48:10.339Z,100754.72
2022-09-12T07:51:12.314Z,100754.91
2022-09-12T07:54:13.975Z,100758.28
2022-09-12T07:57:15.974Z,100759.00
2022-09-12T08:00:18.750Z,100755.44
2022-09-12T08:03:20.775Z,100748.38
2022-09-12T08:06:24.297Z,100761.03
2022-09-12T08:09:26.001Z,100760.63
2022-09-12T08:12:28.918Z,100756.97
2022-09-12T08:15:31.430Z,100757.56
2022-09-12T08:18:34.464Z,100757.50
2022-09-12T08:21:36.144Z,100759.25
2022-09-12T08:24:39.393Z,100759.72
2022-09-12T08:27:42.949Z,100756.34
2022-09-12T08:30:44.556Z,100751.81
2022-09-12T08:33:46.434Z,100752.22
2022-09-12T08:36:48.278Z,100754.13
2022-09-12T08:39:49.942Z,100753.69
2022-09-12T08:43:06.789Z,100755.44
2022-09-12T08:46:15.794Z,100754.00
2022-09-12T08:49:27.628Z,100760.97
2022-09-12T08:52:51.906Z,100756.06
2022-09-12T08:55:58.774Z,100749.00
2022-09-12T08:59:00.350Z,100751.91
2022-09-12T09:02:04.488Z,100746.91
2022-09-12T09:05:24.766Z,100744.38
2022-09-12T09:08:31.397Z,100744.78
2022-09-12T09:11:47.887Z,100743.78
2022-09-12T09:15:12.002Z,100729.72
2022-09-12T09:18:23.336Z,100738.06
2022-09-12T09:21:53.002Z,100730.06
2022-09-12T09:25:01.536Z,100731.09
2022-09-12T09:28:15.652Z,100729.91
2022-09-12T09:31:19.984Z,100736.41
2022-09-12T09:34:24.639Z,100729.63
2022-09-12T09:37:26.163Z,100730.50
2022-09-12T09:40:39.324Z,100728.38
2022-09-12T09:43:40.963Z,100726.50
2022-09-12T09:46:42.639Z,100728.53
2022-09-12T09:49:44.435Z,100726.50
2022-09-12T09:52:47.532Z,100717.34
2022-09-12T09:55:49.905Z,100718.06
2022-09-12T09:58:51.483Z,100717.88
2022-09-12T10:01:55.868Z,100714.16
2022-09-12T10:04:58.827Z,100706.81
2022-09-12T10:08:00.680Z,100715.50
2022-09-12T10:11:16.035Z,100705.13
2022-09-12T10:14:30.064Z,100701.91
2022-09-12T10:17:42.691Z,100704.44
2022-09-12T10:20:45.559Z,100711.75
2022-09-12T10:23:50.727Z,100706.16
2022-09-12T10:26:58.543Z,100710.56
2022-09-12T10:30:05.915Z,100710.56
2022-09-12T10:33:12.177Z,100703.25
2022-09-12T10:36:15.600Z,100698.16
2022-09-12T10:39:19.585Z,100694.22
2022-09-12T10:42:43.058Z,100699.69
2022-09-12T10:45:44.708Z,100687.06
2022-09-12T10:48:48.034Z,100695.78
2022-09-12T10:51:50.811Z,100686.41
2022-09-12T10:54:52.728Z,100679.75
2022-09-12T10:58:23.138Z,100673.44
2022-09-12T11:01:36.931Z,100679.56
2022-09-12T11:05:11.251Z,100682.94
2022-09-12T11:08:15.970Z,100672.19
2022-09-12T11:11:29.903Z,100678.50
2022-09-12T11:14:43.669Z,100674.75
2022-09-12T11:18:00.557Z,100674.06
2022-09-12T11:21:14.524Z,100674.03
2022-09-12T11:24:24.102Z,100671.19
2022-09-12T11:27:58.102Z,100659.56
2022-09-12T11:31:02.785Z,100650.88
2022-09-12T11:34:09.600Z,100648.09
2022-09-12T11:37:43.772Z,100644.66
2022-09-12T11:41:07.319Z,100647.16
2022-09-12T11:44:14.310Z,100646.47
2022-09-12T11:47:16.112Z,100643.03
2022-09-12T11:50:28.724Z,100642.88
2022-09-12T11:53:38.614Z,100635.94
2022-09-12T11:56:47.793Z,100636.47
2022-09-12T11:59:54.625Z,100639.81
2022-09-12T12:03:21.019Z,100639.97
2022-09-12T12:06:30.563Z,100636.22
2022-09-12T12:09:33.200Z,100638.47
2022-09-12T12:12:35.660Z,100635.25
2022-09-12T12:15:39.335Z,100626.88
2022-09-12T12:18:43.221Z,100636.47
2022-09-12T12:21:47.516Z,100634.09
2022-09-12T12:25:12.340Z,100628.16
2022-09-12T12:28:42.655Z,100635.41
2022-09-12T12:31:59.502Z,100618.09
2022-09-12T12:35:02.706Z,100630.19
2022-09-12T12:38:25.789Z,100620.09
2022-09-12T12:41:36.460Z,100629.00
2022-09-12T12:44:44.123Z,100618.00
2022-09-12T12:47:49.561Z,100615.84
2022-09-12T12:50:52.343Z,100612.56
2022-09-12T12:53:54.331Z,100607.78
2022-09-12T12:57:18.112Z,100605.41
2022-09-12T13:00:29.896Z,100599.09
2022-09-12T13:03:34.135Z,100596.19
2022-09-12T13:06:40.999Z,100590.25
2022-09-12T13:09:52.866Z,100594.50
2022-09-12T13:12:57.668Z,100584.63
2022-09-12T13:15:59.361Z,100582.50
2022-09-12T13:19:06.862Z,100576.50
2022-09-12T13:22:10.181Z,100568.47
2022-09-12T13:25:20.464Z,100570.47
2022-09-12T13:28:22.804Z,100568.31
2022-09-12T13:31:28.518Z,100574.53
2022-09-12T13:34:31.250Z,100565.06
2022-09-12T13:37:57.775Z,100560.88
2022-09-12T13:41:23.868Z,100544.97
2022-09-12T13:44:26.950Z,100548.91
2022-09-12T13:47:36.824Z,100545.91
2022-09-12T13:51:05.764Z,100537.41
2022-09-12T13:54:07.388Z,100521.53
2022-09-12T13:57:29.325Z,100520.78
2022-09-12T14:00:34.921Z,100521.03
2022-09-12T14:03:59.823Z,100518.88
2022-09-12T14:07:13.581Z,100501.81
2022-09-12T14:10:21.944Z,100508.59
2022-09-12T14:13:26.384Z,100499.03
2022-09-12T14:16:29.074Z,100497.44
2022-09-12T14:19:32.800Z,100488.56
2022-09-12T14:22:36.381Z,100490.28
2022-09-12T14:25:41.360Z,100491.28
2022-09-12T14:28:47.378Z,100495.19
2022-09-12T14:32:02.124Z,100488.84
2022-09-12T14:35:05.530Z,100491.41
2022-09-12T14:38:17.722Z,100477.22
2022-09-12T14:41:29.504Z,100479.78
2022-09-12T14:44:32.982Z,100476.53
2022-09-12T14:47:44.424Z,100462.91
2022-09-12T14:50:50.453Z,100464.59
2022-09-12T14:53:52.116Z,100469.19
2022-09-12T14:56:59.543Z,100468.47
2022-09-12T15:00:13.427Z,100460.94
2022-09-12T15:03:43.068Z,100468.56
2022-09-12T15:06:47.701Z,100457.16
2022-09-12T15:09:49.692Z,100459.34
2022-09-12T15:13:09.222Z,100457.84
2022-09-12T15:16:12.110Z,100452.94
2022-09-12T15:19:14.048Z,100442.09
2022-09-12T15:22:15.869Z,100449.22
2022-09-12T15:25:20.778Z,100452.88
2022-09-12T15:28:24.135Z,100442.13
2022-09-12T15:31:31.473Z,100445.19
2022-09-12T15:34:33.556Z,100441.97
2022-09-12T15:37:35.206Z,100424.56
2022-09-12T15:40:36.871Z,100429.47
2022-09-12T15:43:38.569Z,100429.47
2022-09-12T15:46:40.975Z,100426.59
2022-09-12T15:49:42.742Z,100421.19
2022-09-12T15:52:44.424Z,100422.94
2022-09-12T15:55:46.020Z,100418.41
2022-09-12T15:58:58.158Z,100418.47
2022-09-12T16:02:00.704Z,100416.28
2022-09-12T16:05:02.378Z,100408.47
2022-09-12T16:08:03.939Z,100407.44
2022-09-12T16:11:11.966Z,100407.81
2022-09-12T16:14:18.500Z,100407.13
2022-09-12T16:17:20.075Z,100407.50
2022-09-12T16:20:22.717Z,100405.13
2022-09-12T16:23:27.675Z,100401.91
2022-09-12T16:26:29.404Z,100395.31
2022-09-12T16:29:31.182Z,100401.13
2022-09-12T16:32:33.207Z,100393.88
2022-09-12T16:35:34.788Z,100392.03
2022-09-12T16:38:48.511Z,100390.03
2022-09-12T16:41:50.203Z,100384.78
2022-09-12T16:44:51.894Z,100380.22
2022-09-12T16:47:53.457Z,100374.16
2022-09-12T16:51:06.767Z,100370.44
2022-09-12T16:54:08.369Z,100375.25
2022-09-12T16:57:10.622Z,100375.09
2022-09-12T17:00:12.579Z,100373.28
2022-09-12T17:03:16.166Z,100363.63
2022-09-12T17:06:18.510Z,100362.81
2022-09-12T17:09:20.277Z,100363.00
2022-09-12T17:12:21.970Z,100366.94
2022-09-12T17:15:23.744Z,100358.78
2022-09-12T17:18:25.807Z,100354.38
2022-09-12T17:21:27.491Z,100356.44
2022-09-12T17:24:29.132Z,100352.88
2022-09-12T17:27:30.723Z,100360.38
2022-09-12T17:30:36.200Z,100354.75
2022-09-12T17:33:39.146Z,100343.72
2022-09-12T17:36:44.150Z,100339.97
2022-09-12T17:39:46.279Z,100343.72
2022-09-12T17:42:47.930Z,100346.91
2022-09-12T17:45:56.439Z,100340.78
2022-09-12T17:48:58.704Z,100340.44
2022-09-12T17:52:01.942Z,100337.50
2022-09-12T17:55:03.749Z,100342.22
2022-09-12T17:58:05.479Z,100334.88
2022-09-12T18:01:30.920Z,100337.88
2022-09-12T18:04:32.600Z,100329.19
2022-09-12T18:07:38.983Z,100337.13
2022-09-12T18:10:43.771Z,100334.81
2022-09-12T18:13:45.498Z,100334.44
2022-09-12T18:16:47.739Z,100335.94
2022-09-12T18:19:53.803Z,100329.59
2022-09-12T18:22:55.607Z,100337.56
2022-09-12T18:26:01.482Z,100336.16
2022-09-12T18:29:03.087Z,100335.78
2022-09-12T18:32:04.730Z,100333.72
2022-09-12T18:35:06.934Z,100332.78
2022-09-12T18:38:08.518Z,100330.59
2022-09-12T18:41:21.827Z,100333.06
2022-09-12T18:44:23.423Z,100328.44
2022-09-12T18:47:25.006Z,100329.22
2022-09-12T18:50:26.578Z,100327.66
2022-09-12T18:53:28.168Z,100320.31
2022-09-12T18:56:35.151Z,100321.63
2022-09-12T18:59:36.703Z,100326.13
2022-09-12T19:02:38.357Z,100322.81
2022-09-12T19:05:39.983Z,100309.59
2022-09-12T19:08:41.576Z,100311.22
2022-09-12T19:11:48.917Z,100307.47
2022-09-12T19:14:50.609Z,100309.59
2022-09-12T19:17:52.143Z,100312.38
2022-09-12T19:20:53.859Z,100311.31
2022-09-12T19:23:58.227Z,100306.81
2022-09-12T19:26:59.810Z,100302.47
2022-09-12T19:30:01.391Z,100303.31
2022-09-12T19:33:03.090Z,100297.50
2022-09-12T19:36:13.869Z,100289.25
2022-09-12T19:39:23.951Z,100285.25
2022-09-12T19:42:25.465Z,100285.84
2022-09-12T19:45:27.484Z,100286.97
2022-09-12T19:48:29.919Z,100286.28
2022-09-12T19:51:31.489Z,100281.19
2022-09-12T19:54:33.092Z,100275.78
2022-09-12T19:57:34.731Z,100267.09
2022-09-12T20:00:37.244Z,100269.13
2022-09-12T20:03:39.323Z,100264.69
2022-09-12T20:06:41.886Z,100253.16
2022-09-12T20:09:43.464Z,100251.78
2022-09-12T20:12:45.032Z,100248.69
2022-09-12T20:15:46.710Z,100251.53
2022-09-12T20:18:52.189Z,100249.00
2022-09-12T20:21:53.769Z,100240.50
2022-09-12T20:24:55.428Z,100236.50
2022-09-12T20:28:00.194Z,100236.97
2022-09-12T20:31:04.174Z,100238.97
2022-09-12T20:34:06.314Z,100233.88
2022-09-12T20:37:07.928Z,100232.44
2022-09-12T20:40:10.526Z,100230.16
2022-09-12T20:43:12.094Z,100227.22
2022-09-12T20:46:13.724Z,100225.94
2022-09-12T20:49:15.299Z,100221.16
2022-09-12T20:52:16.910Z,100214.19
2022-09-12T20:55:19.245Z,100217.19
2022-09-12T20:58:23.661Z,100210.25
2022-09-12T21:01:26.965Z,100200.59
2022-09-12T21:04:28.634Z,100199.16
2022-09-12T21:07:30.735Z,100192.22
2022-09-12T21:10:32.642Z,100183.69
2022-09-12T21:13:34.468Z,100177.47
2022-09-12T21:16:38.571Z,100173.75
2022-09-12T21:19:40.178Z,100152.31
2022-09-12T21:22:41.750Z,100160.41
2022-09-12T21:25:51.991Z,100156.16
2022-09-12T21:28:54.243Z,100157.84
2022-09-12T21:31:55.841Z,100154.31
2022-09-12T21:34:57.465Z,100154.00
2022-09-12T21:37:59.067Z,100152.13
2022-09-12T21:41:08.131Z,100149.00
2022-09-12T21:44:09.721Z,100145.44
2022-09-12T21:47:12.397Z,100142.75
2022-09-12T21:50:14.708Z,100146.16
2022-09-12T21:53:16.365Z,100139.03
2022-09-12T21:56:17.917Z,100140.91
2022-09-12T21:59:19.575Z,100143.75
2022-09-12T22:02:22.936Z,100138.81
2022-09-12T22:05:27.187Z,100137.25
2022-09-12T22:08:30.772Z,100135.28
2022-09-12T22:11:32.353Z,100137.72
2022-09-12T22:14:34.517Z,100140.41
2022-09-12T22:17:36.169Z,100130.75
2022-09-12T22:20:37.751Z,100137.19
2022-09-12T22:23:58.588Z,100135.47
2022-09-12T22:27:03.942Z,100126.69
2022-09-12T22:30:07.853Z,100120.88
2022-09-12T22:33:09.446Z,100120.59
2022-09-12T22:36:12.452Z,100118.91
2022-09-12T22:39:14.853Z,100108.38
2022-09-12T22:42:16.427Z,100113.25
2022-09-12T22:45:19.102Z,100108.69
2022-09-12T22:48:20.667Z,100107.84
2022-09-12T22:51:22.308Z,100107.84
2022-09-12T22:54:23.880Z,100105.84
2022-09-12T22:57:25.685Z,100101.56
2022-09-12T23:00:30.157Z,100101.28
2022-09-12T23:03:32.140Z,100089.56
2022-09-12T23:06:33.742Z,100083.06
2022-09-12T23:09:35.723Z,100077.88
2022-09-12T23:12:37.486Z,100082.09
2022-09-12T23:15:39.144Z,100079.28
2022-09-12T23:18:40.813Z,100074.84
2022-09-12T23:21:42.495Z,100073.41
2022-09-12T23:24:44.116Z,100071.47
2022-09-12T23:27:45.725Z,100061.56
2022-09-12T23:30:54.622Z,100050.28
2022-09-12T23:33:57.997Z,100054.81
2022-09-12T23:37:00.144Z,100054.28
2022-09-12T23:40:02.376Z,100056.03
2022-09-12T23:43:05.102Z,100051.66
2022-09-12T23:46:07.439Z,100066.13
2022-09-12T23:49:09.238Z,100063.09
2022-09-12T23:52:10.819Z,100059.59
2022-09-12T23:55:12.400Z,100065.06
2022-09-12T23:58:14.621Z,100057.84
